createdAt,value
2023-03-19T00:02:15.442Z,9.33
2023-03-19T00:04:43.651Z,8.50
2023-03-19T00:07:10.184Z,9.27
2023-03-19T00:09:36.708Z,8.90
2023-03-19T00:12:03.162Z,8.80
2023-03-19T00:14:29.933Z,9.43
2023-03-19T00:16:56.774Z,8.90
2023-03-19T00:19:23.508Z,9.33
2023-03-19T00:21:49.953Z,9.00
2023-03-19T00:24:17.516Z,9.50
2023-03-19T00:26:44.094Z,10.13
2023-03-19T00:29:11.103Z,10.40
2023-03-19T00:31:37.523Z,9.80
2023-03-19T00:34:04.078Z,9.53
2023-03-19T00:36:30.572Z,10.13
2023-03-19T00:38:58.305Z,9.33
2023-03-19T00:41:24.869Z,8.90
2023-03-19T00:43:58.123Z,8.97
2023-03-19T00:46:25.684Z,9.20
2023-03-19T00:48:55.390Z,9.37
2023-03-19T00:51:23.408Z,9.67
2023-03-19T00:53:50.455Z,9.33
2023-03-19T00:56:18.333Z,8.93
2023-03-19T00:58:45.455Z,9.27
2023-03-19T01:01:14.421Z,8.53
2023-03-19T01:03:40.923Z,8.97
2023-03-19T01:06:07.735Z,8.90
2023-03-19T01:08:34.136Z,9.43
2023-03-19T01:11:26.857Z,9.10
2023-03-19T01:13:53.884Z,9.03
2023-03-19T01:16:20.345Z,8.77
2023-03-19T01:18:47.414Z,9.33
2023-03-19T01:21:13.810Z,9.10
2023-03-19T01:23:40.888Z,9.10
2023-03-19T01:26:07.339Z,9.00
2023-03-19T01:28:34.107Z,9.97
2023-03-19T01:31:05.645Z,9.10
2023-03-19T01:33:32.093Z,8.93
2023-03-19T01:35:59.431Z,8.77
2023-03-19T01:38:25.977Z,9.20
2023-03-19T01:40:52.413Z,8.13
2023-03-19T01:43:22.431Z,8.73
2023-03-19T01:46:00.669Z,8.70
2023-03-19T01:48:29.613Z,8.63
2023-03-19T01:50:57.131Z,8.67
2023-03-19T01:53:27.839Z,8.40
2023-03-19T01:55:59.757Z,8.67
2023-03-19T01:58:26.715Z,10.70
2023-03-19T02:00:53.674Z,8.97
2023-03-19T02:03:20.453Z,9.10
2023-03-19T02:05:50.067Z,8.63
2023-03-19T02:08:18.933Z,8.37
2023-03-19T02:10:47.524Z,8.40
2023-03-19T02:13:14.119Z,8.97
2023-03-19T02:15:40.945Z,8.93
2023-03-19T02:18:08.393Z,9.00
2023-03-19T02:20:41.499Z,8.77
2023-03-19T02:23:27.238Z,10.07
2023-03-19T02:25:59.596Z,10.63
2023-03-19T02:28:26.353Z,9.67
2023-03-19T02:30:53.036Z,9.03
2023-03-19T02:33:19.790Z,9.30
2023-03-19T02:35:49.183Z,8.83
2023-03-19T02:38:15.883Z,10.10
2023-03-19T02:41:00.761Z,8.83
2023-03-19T02:43:27.835Z,8.70
2023-03-19T02:45:54.638Z,9.40
2023-03-19T02:48:21.078Z,8.50
2023-03-19T02:50:47.462Z,9.00
2023-03-19T02:53:14.362Z,8.37
2023-03-19T02:55:40.972Z,8.43
2023-03-19T02:58:07.345Z,8.43
2023-03-19T03:00:34.024Z,8.23
2023-03-19T03:03:01.727Z,8.83
2023-03-19T03:05:28.134Z,8.53
2023-03-19T03:07:54.540Z,9.00
2023-03-19T03:10:21.017Z,9.37
2023-03-19T03:12:47.416Z,9.57
2023-03-19T03:15:14.296Z,8.77
2023-03-19T03:17:41.858Z,8.83
2023-03-19T03:20:11.440Z,8.90
2023-03-19T03:22:39.240Z,9.03
2023-03-19T03:25:06.542Z,8.97
2023-03-19T03:27:33.322Z,9.47
2023-03-19T03:29:59.716Z,8.60
2023-03-19T03:32:26.494Z,8.27
2023-03-19T03:34:52.965Z,9.03
2023-03-19T03:37:19.713Z,9.00
2023-03-19T03:39:46.479Z,8.93
2023-03-19T03:42:12.851Z,9.00
2023-03-19T03:44:39.608Z,8.37
2023-03-19T03:47:06.650Z,8.63
2023-03-19T03:49:33.330Z,8.80
2023-03-19T03:51:59.752Z,9.57
2023-03-19T03:54:26.187Z,8.23
2023-03-19T03:56:52.671Z,8.37
2023-03-19T03:59:20.285Z,8.30
2023-03-19T04:01:46.696Z,8.33
2023-03-19T04:04:13.803Z,9.33
2023-03-19T04:06:40.185Z,8.63
2023-03-19T04:09:07.990Z,8.40
2023-03-19T04:11:35.628Z,8.83
2023-03-19T04:14:03.408Z,8.30
2023-03-19T04:16:29.912Z,9.90
2023-03-19T04:18:56.328Z,9.93
2023-03-19T04:21:22.719Z,9.43
2023-03-19T04:23:49.181Z,8.80
2023-03-19T04:26:16.105Z,7.90
2023-03-19T04:28:42.588Z,8.60
2023-03-19T04:31:09.867Z,8.50
2023-03-19T04:33:36.471Z,8.40
2023-03-19T04:36:04.351Z,8.70
2023-03-19T04:38:31.918Z,8.80
2023-03-19T04:40:58.412Z,9.07
2023-03-19T04:43:25.125Z,9.03
2023-03-19T04:45:51.959Z,9.47
2023-03-19T04:48:18.421Z,9.37
2023-03-19T04:50:47.261Z,10.90
2023-03-19T04:53:13.985Z,12.37
2023-03-19T04:55:41.011Z,11.87
2023-03-19T04:58:08.955Z,12.27
2023-03-19T05:00:35.877Z,12.50
2023-03-19T05:03:02.419Z,12.30
2023-03-19T05:05:29.161Z,13.37
2023-03-19T05:07:57.286Z,12.03
2023-03-19T05:10:24.032Z,11.87
2023-03-19T05:12:50.618Z,10.40
2023-03-19T05:15:17.112Z,10.07
2023-03-19T05:17:43.467Z,9.50
2023-03-19T05:20:12.655Z,8.77
2023-03-19T05:22:39.050Z,9.13
2023-03-19T05:25:06.895Z,10.10
2023-03-19T05:27:33.683Z,10.23
2023-03-19T05:30:01.340Z,9.60
2023-03-19T05:32:29.026Z,9.23
2023-03-19T05:34:55.395Z,9.43
2023-03-19T05:37:22.076Z,8.57
2023-03-19T05:39:48.448Z,9.00
2023-03-19T05:42:15.616Z,9.57
2023-03-19T05:44:42.274Z,9.00
2023-03-19T05:47:10.379Z,9.03
2023-03-19T05:49:37.185Z,9.27
2023-03-19T05:52:04.106Z,8.30
2023-03-19T05:54:30.685Z,9.03
2023-03-19T05:56:57.502Z,8.77
2023-03-19T05:59:23.915Z,8.80
2023-03-19T06:01:51.226Z,8.80
2023-03-19T06:04:17.728Z,9.50
2023-03-19T06:06:44.196Z,10.30
2023-03-19T06:09:10.628Z,10.90
2023-03-19T06:11:39.674Z,9.67
2023-03-19T06:14:06.909Z,9.20
2023-03-19T06:16:33.324Z,8.60
2023-03-19T06:18:59.859Z,8.87
2023-03-19T06:21:29.875Z,10.67
2023-03-19T06:23:56.682Z,10.33
2023-03-19T06:26:23.824Z,9.77
2023-03-19T06:28:50.472Z,9.40
2023-03-19T06:31:17.350Z,10.30
2023-03-19T06:33:43.807Z,9.73
2023-03-19T06:36:11.209Z,10.20
2023-03-19T06:38:37.786Z,8.70
2023-03-19T06:41:04.575Z,9.63
2023-03-19T06:43:31.849Z,10.07
2023-03-19T06:45:58.309Z,9.97
2023-03-19T06:48:25.058Z,9.47
2023-03-19T06:50:51.552Z,9.90
2023-03-19T06:53:17.946Z,10.00
2023-03-19T06:55:46.881Z,10.57
2023-03-19T06:58:13.283Z,9.80
2023-03-19T07:00:39.678Z,9.83
2023-03-19T07:03:07.391Z,10.03
2023-03-19T07:05:33.985Z,10.60
2023-03-19T07:08:00.717Z,10.07
2023-03-19T07:10:27.381Z,10.20
2023-03-19T07:12:54.027Z,9.90
2023-03-19T07:15:21.577Z,10.40
2023-03-19T07:17:48.830Z,10.00
2023-03-19T07:20:15.637Z,9.93
2023-03-19T07:22:42.030Z,9.20
2023-03-19T07:25:08.853Z,9.60
2023-03-19T07:27:35.412Z,9.80
2023-03-19T07:30:01.836Z,10.23
2023-03-19T07:32:28.556Z,9.80
2023-03-19T07:34:54.973Z,10.30
2023-03-19T07:37:22.536Z,11.43
2023-03-19T07:39:49.064Z,10.57
2023-03-19T07:42:16.596Z,11.37
2023-03-19T07:44:42.992Z,10.77
2023-03-19T07:47:22.421Z,11.13
2023-03-19T07:49:52.735Z,9.80
2023-03-19T07:52:19.191Z,10.30
2023-03-19T07:54:45.857Z,9.90
2023-03-19T07:57:12.290Z,10.20
2023-03-19T07:59:38.696Z,10.00
2023-03-19T08:02:05.143Z,10.77
2023-03-19T08:04:31.588Z,10.43
2023-03-19T08:06:58.354Z,10.83
2023-03-19T08:09:24.853Z,11.43
2023-03-19T08:11:51.317Z,11.33
2023-03-19T08:14:22.386Z,10.37
2023-03-19T08:16:49.256Z,11.50
2023-03-19T08:19:16.765Z,11.30
2023-03-19T08:21:43.241Z,11.20
2023-03-19T08:24:09.693Z,11.33
2023-03-19T08:26:36.383Z,11.53
2023-03-19T08:29:04.163Z,11.00
2023-03-19T08:31:30.738Z,11.37
2023-03-19T08:34:00.006Z,11.53
2023-03-19T08:36:27.522Z,10.77
2023-03-19T08:38:54.863Z,11.57
2023-03-19T08:41:22.706Z,11.10
2023-03-19T08:43:49.466Z,12.00
2023-03-19T08:46:16.397Z,11.13
2023-03-19T08:48:43.159Z,11.90
2023-03-19T08:51:10.822Z,11.87
2023-03-19T08:53:38.608Z,10.57
2023-03-19T08:56:07.749Z,12.07
2023-03-19T08:58:34.794Z,12.47
2023-03-19T09:01:07.419Z,12.10
2023-03-19T09:03:33.808Z,11.40
2023-03-19T09:06:01.992Z,11.87
2023-03-19T09:08:29.107Z,11.23
2023-03-19T09:10:56.580Z,11.20
2023-03-19T09:13:24.042Z,11.73
2023-03-19T09:15:50.677Z,11.57
2023-03-19T09:18:17.589Z,11.37
2023-03-19T09:20:43.980Z,12.33
2023-03-19T09:23:10.418Z,11.83
2023-03-19T09:25:36.951Z,11.60
2023-03-19T09:28:03.824Z,10.43
2023-03-19T09:30:30.273Z,11.30
2023-03-19T09:32:57.322Z,8.10
2023-03-19T09:35:24.041Z,8.20
2023-03-19T09:37:52.077Z,8.00
2023-03-19T09:40:33.735Z,7.17
2023-03-19T09:43:22.080Z,7.67
2023-03-19T09:45:49.221Z,7.40
2023-03-19T09:48:28.796Z,7.77
2023-03-19T09:50:56.369Z,6.93
2023-03-19T09:54:04.864Z,8.00
2023-03-19T09:56:33.316Z,7.47
2023-03-19T09:59:00.039Z,6.87
2023-03-19T10:01:33.637Z,6.70
2023-03-19T10:04:24.880Z,6.80
2023-03-19T10:06:58.967Z,6.43
2023-03-19T10:09:47.612Z,5.67
2023-03-19T10:12:38.843Z,5.70
2023-03-19T10:15:22.023Z,5.13
2023-03-19T10:17:59.939Z,4.40
2023-03-19T10:20:45.330Z,3.50
2023-03-19T10:23:34.758Z,3.37
2023-03-19T10:26:04.703Z,3.03
2023-03-19T10:28:31.788Z,3.03
2023-03-19T10:31:03.979Z,3.23
2023-03-19T10:33:43.140Z,3.60
2023-03-19T10:36:14.069Z,3.13
2023-03-19T10:38:43.373Z,3.30
2023-03-19T10:41:29.024Z,3.00
2023-03-19T10:44:01.545Z,2.80
2023-03-19T10:46:28.397Z,2.90
2023-03-19T10:48:54.812Z,2.87
2023-03-19T10:51:25.015Z,2.97
2023-03-19T10:53:53.692Z,2.70
2023-03-19T10:56:25.804Z,2.70
2023-03-19T10:59:04.075Z,3.00
2023-03-19T11:01:37.948Z,2.87
2023-03-19T11:04:18.193Z,2.50
2023-03-19T11:06:49.420Z,2.87
2023-03-19T11:09:24.030Z,2.70
2023-03-19T11:11:53.592Z,3.00
2023-03-19T11:14:25.431Z,2.70
2023-03-19T11:16:57.796Z,3.10
2023-03-19T11:19:29.643Z,2.80
2023-03-19T11:22:07.613Z,2.33
2023-03-19T11:24:38.150Z,2.53
2023-03-19T11:27:06.494Z,2.50
2023-03-19T11:29:44.136Z,2.53
2023-03-19T11:32:25.867Z,2.60
2023-03-19T11:34:55.403Z,2.50
2023-03-19T11:37:50.876Z,2.70
2023-03-19T11:40:31.966Z,2.40
2023-03-19T11:43:10.517Z,2.30
2023-03-19T11:46:00.110Z,2.83
2023-03-19T11:48:45.620Z,3.00
2023-03-19T11:51:23.030Z,2.80
2023-03-19T11:54:34.821Z,2.53
2023-03-19T11:57:08.800Z,2.43
2023-03-19T11:59:59.257Z,2.80
2023-03-19T12:02:40.933Z,2.40
2023-03-19T12:05:21.465Z,2.77
2023-03-19T12:08:08.389Z,2.60
2023-03-19T12:10:55.358Z,2.77
2023-03-19T12:13:27.846Z,2.50
2023-03-19T12:16:13.627Z,2.87
2023-03-19T12:19:03.037Z,2.50
2023-03-19T12:21:52.765Z,2.67
2023-03-19T12:24:53.457Z,2.70
2023-03-19T12:27:34.351Z,2.70
2023-03-19T12:30:11.824Z,2.93
2023-03-19T12:32:52.053Z,2.93
2023-03-19T12:35:24.483Z,2.80
2023-03-19T12:38:14.160Z,2.80
2023-03-19T12:40:48.594Z,2.77
2023-03-19T12:43:25.921Z,2.50
2023-03-19T12:46:03.144Z,2.10
2023-03-19T12:48:39.133Z,2.40
2023-03-19T12:51:09.684Z,3.10
2023-03-19T12:53:46.800Z,2.33
2023-03-19T12:56:21.756Z,2.40
2023-03-19T12:58:59.894Z,2.30
2023-03-19T13:01:36.672Z,2.17
2023-03-19T13:04:32.623Z,2.33
2023-03-19T13:07:05.987Z,2.23
2023-03-19T13:09:59.320Z,2.47
2023-03-19T13:12:29.229Z,2.30
2023-03-19T13:15:01.841Z,2.10
2023-03-19T13:17:37.584Z,1.83
2023-03-19T13:20:31.728Z,2.10
2023-03-19T13:23:03.189Z,2.00
2023-03-19T13:25:42.884Z,2.27
2023-03-19T13:28:18.778Z,2.30
2023-03-19T13:31:04.540Z,2.00
2023-03-19T13:33:32.610Z,2.10
2023-03-19T13:36:05.130Z,2.10
2023-03-19T13:38:41.414Z,2.10
2023-03-19T13:41:37.593Z,1.90
2023-03-19T13:44:22.321Z,2.40
2023-03-19T13:46:49.821Z,2.30
2023-03-19T13:49:19.258Z,2.60
2023-03-19T13:51:49.358Z,2.47
2023-03-19T13:54:20.131Z,2.23
2023-03-19T13:57:04.214Z,2.17
2023-03-19T13:59:32.933Z,2.40
2023-03-19T14:02:01.208Z,2.20
2023-03-19T14:04:31.759Z,2.10
2023-03-19T14:07:10.555Z,2.30
2023-03-19T14:09:45.618Z,2.67
2023-03-19T14:12:17.704Z,3.20
2023-03-19T14:15:13.572Z,3.47
2023-03-19T14:17:46.991Z,3.33
2023-03-19T14:20:14.554Z,3.00
2023-03-19T14:23:02.533Z,3.03
2023-03-19T14:25:51.464Z,2.70
2023-03-19T14:28:21.426Z,3.10
2023-03-19T14:30:51.944Z,3.10
2023-03-19T14:33:26.000Z,2.53
2023-03-19T14:35:53.465Z,2.50
2023-03-19T14:38:42.601Z,2.87
2023-03-19T14:41:15.289Z,2.87
2023-03-19T14:44:02.609Z,3.00
2023-03-19T14:46:32.346Z,3.30
2023-03-19T14:49:25.061Z,3.33
2023-03-19T14:52:14.896Z,3.30
2023-03-19T14:54:48.001Z,3.67
2023-03-19T14:57:17.877Z,3.77
2023-03-19T14:59:44.281Z,3.53
2023-03-19T15:02:32.384Z,3.40
2023-03-19T15:05:00.935Z,2.90
2023-03-19T15:07:34.057Z,3.33
2023-03-19T15:10:06.398Z,3.07
2023-03-19T15:13:09.097Z,3.17
2023-03-19T15:15:57.432Z,3.27
2023-03-19T15:18:25.975Z,3.00
2023-03-19T15:20:57.005Z,3.57
2023-03-19T15:23:28.601Z,3.20
2023-03-19T15:26:01.444Z,3.80
2023-03-19T15:28:37.553Z,3.43
2023-03-19T15:31:26.252Z,3.50
2023-03-19T15:33:53.249Z,3.17
2023-03-19T15:36:30.019Z,3.20
2023-03-19T15:39:05.079Z,3.60
2023-03-19T15:41:35.545Z,3.40
2023-03-19T15:44:06.113Z,3.17
2023-03-19T15:46:36.598Z,3.27
2023-03-19T15:49:29.250Z,3.10
2023-03-19T15:52:02.427Z,3.03
2023-03-19T15:54:28.948Z,3.40
2023-03-19T15:56:56.409Z,3.00
2023-03-19T15:59:26.628Z,3.90
2023-03-19T16:01:57.782Z,4.13
2023-03-19T16:04:27.515Z,4.33
2023-03-19T16:06:54.605Z,3.73
2023-03-19T16:09:33.863Z,4.20
2023-03-19T16:12:01.428Z,3.90
2023-03-19T16:14:45.439Z,4.07
2023-03-19T16:17:17.206Z,3.60
2023-03-19T16:19:55.945Z,4.60
2023-03-19T16:22:25.539Z,3.97
2023-03-19T16:24:52.593Z,3.80
2023-03-19T16:27:22.376Z,3.90
2023-03-19T16:29:59.823Z,3.73
2023-03-19T16:32:31.607Z,3.70
2023-03-19T16:35:05.584Z,3.70
2023-03-19T16:37:43.312Z,3.80
2023-03-19T16:40:12.504Z,3.20
2023-03-19T16:42:41.089Z,3.10
2023-03-19T16:45:16.709Z,2.60
2023-03-19T16:47:48.680Z,2.37
2023-03-19T16:50:16.022Z,3.00
2023-03-19T16:52:44.833Z,2.67
2023-03-19T16:55:26.229Z,2.73
2023-03-19T16:58:01.757Z,2.70
2023-03-19T17:00:31.821Z,3.07
2023-03-19T17:02:58.909Z,3.37
2023-03-19T17:05:27.293Z,2.90
2023-03-19T17:07:57.201Z,3.30
2023-03-19T17:10:26.735Z,3.43
2023-03-19T17:12:54.978Z,3.50
2023-03-19T17:15:27.438Z,3.80
2023-03-19T17:17:54.426Z,3.60
2023-03-19T17:20:27.958Z,3.30
2023-03-19T17:22:54.524Z,3.13
2023-03-19T17:25:21.529Z,3.20
2023-03-19T17:27:48.021Z,2.93
2023-03-19T17:30:14.623Z,2.57
2023-03-19T17:32:46.025Z,2.30
2023-03-19T17:35:17.889Z,2.80
2023-03-19T17:37:45.243Z,2.50
2023-03-19T17:40:17.683Z,2.43
2023-03-19T17:42:45.047Z,2.63
2023-03-19T17:45:16.781Z,2.73
2023-03-19T17:47:46.911Z,2.50
2023-03-19T17:50:22.482Z,2.60
2023-03-19T17:52:49.196Z,2.70
2023-03-19T17:55:27.107Z,2.73
2023-03-19T17:57:53.564Z,2.80
2023-03-19T18:00:22.247Z,2.63
2023-03-19T18:02:51.446Z,2.90
2023-03-19T18:05:26.073Z,3.07
2023-03-19T18:07:56.296Z,3.00
2023-03-19T18:10:30.293Z,3.00
2023-03-19T18:12:59.909Z,2.80
2023-03-19T18:15:29.705Z,3.17
2023-03-19T18:17:58.145Z,2.90
2023-03-19T18:20:37.137Z,2.97
2023-03-19T18:23:05.358Z,2.90
2023-03-19T18:25:35.056Z,2.50
2023-03-19T18:28:05.463Z,2.83
2023-03-19T18:30:34.468Z,3.10
2023-03-19T18:33:05.742Z,3.70
2023-03-19T18:35:36.999Z,5.07
2023-03-19T18:38:04.001Z,5.80
2023-03-19T18:40:32.667Z,4.37
2023-03-19T18:42:59.466Z,4.00
2023-03-19T18:45:28.718Z,3.70
2023-03-19T18:47:56.962Z,3.80
2023-03-19T18:50:29.172Z,5.80
2023-03-19T18:52:56.741Z,7.73
2023-03-19T18:55:30.369Z,7.10
2023-03-19T18:58:00.899Z,7.40
2023-03-19T19:00:31.514Z,8.43
2023-03-19T19:02:58.848Z,8.20
2023-03-19T19:05:28.054Z,8.13
2023-03-19T19:07:56.760Z,8.53
2023-03-19T19:10:24.557Z,8.53
2023-03-19T19:12:53.332Z,8.20
2023-03-19T19:15:30.432Z,7.43
2023-03-19T19:17:57.735Z,8.07
2023-03-19T19:20:27.566Z,7.73
2023-03-19T19:22:54.839Z,7.90
2023-03-19T19:25:23.418Z,7.73
2023-03-19T19:27:58.862Z,7.73
2023-03-19T19:30:25.568Z,7.80
2023-03-19T19:32:52.037Z,8.37
2023-03-19T19:35:27.062Z,8.87
2023-03-19T19:37:54.019Z,7.63
2023-03-19T19:40:27.187Z,9.30
2023-03-19T19:42:54.172Z,8.27
2023-03-19T19:45:39.988Z,7.33
2023-03-19T19:48:14.558Z,7.20
2023-03-19T19:50:41.349Z,7.70
2023-03-19T19:53:07.848Z,6.20
2023-03-19T19:55:34.528Z,6.60
2023-03-19T19:58:01.718Z,6.57
2023-03-19T20:00:30.748Z,6.73
2023-03-19T20:02:59.239Z,7.13
2023-03-19T20:05:27.969Z,6.40
2023-03-19T20:07:56.737Z,6.37
2023-03-19T20:10:26.409Z,6.67
2023-03-19T20:12:56.250Z,6.20
2023-03-19T20:15:29.419Z,6.73
2023-03-19T20:17:56.435Z,6.67
2023-03-19T20:20:24.529Z,6.50
2023-03-19T20:22:51.977Z,7.37
2023-03-19T20:25:20.697Z,7.17
2023-03-19T20:27:51.186Z,7.17
2023-03-19T20:30:24.238Z,7.10
2023-03-19T20:32:51.286Z,7.57
2023-03-19T20:35:23.782Z,7.77
2023-03-19T20:37:51.958Z,7.90
2023-03-19T20:40:19.756Z,7.93
2023-03-19T20:42:48.984Z,7.80
2023-03-19T20:45:21.962Z,7.83
2023-03-19T20:47:51.955Z,7.07
2023-03-19T20:50:22.538Z,6.80
2023-03-19T20:52:49.165Z,6.57
2023-03-19T20:55:21.153Z,6.53
2023-03-19T20:57:51.093Z,6.53
2023-03-19T21:00:32.568Z,6.10
2023-03-19T21:03:01.249Z,6.40
2023-03-19T21:05:36.964Z,7.03
2023-03-19T21:08:14.960Z,6.17
2023-03-19T21:10:43.171Z,5.60
2023-03-19T21:13:14.235Z,6.73
2023-03-19T21:15:41.793Z,7.23
2023-03-19T21:18:08.954Z,7.03
2023-03-19T21:20:39.001Z,6.83
2023-03-19T21:23:25.330Z,7.20
2023-03-19T21:25:52.024Z,6.27
2023-03-19T21:28:39.840Z,6.77
2023-03-19T21:31:07.517Z,5.90
2023-03-19T21:33:35.400Z,6.07
2023-03-19T21:36:03.197Z,6.00
2023-03-19T21:38:32.937Z,6.40
2023-03-19T21:41:02.264Z,6.10
2023-03-19T21:43:39.596Z,6.77
2023-03-19T21:46:22.922Z,8.60
2023-03-19T21:48:50.776Z,9.57
2023-03-19T21:51:17.309Z,7.00
2023-03-19T21:53:45.664Z,7.57
2023-03-19T21:56:23.325Z,6.30
2023-03-19T21:58:52.109Z,6.67
2023-03-19T22:01:22.566Z,6.80
2023-03-19T22:03:49.813Z,6.73
2023-03-19T22:06:17.076Z,6.97
2023-03-19T22:08:48.293Z,7.00
2023-03-19T22:11:24.587Z,7.10
2023-03-19T22:13:51.058Z,7.60
2023-03-19T22:16:21.015Z,7.60
2023-03-19T22:18:48.445Z,7.67
2023-03-19T22:21:17.769Z,7.83
2023-03-19T22:23:46.519Z,7.30
2023-03-19T22:26:33.207Z,7.60
2023-03-19T22:29:04.385Z,7.20
2023-03-19T22:31:31.658Z,6.50
2023-03-19T22:33:58.247Z,6.40
2023-03-19T22:36:24.673Z,6.07
2023-03-19T22:38:51.734Z,6.20
2023-03-19T22:41:36.509Z,6.27
2023-03-19T22:44:06.681Z,6.70
2023-03-19T22:46:33.239Z,6.10
2023-03-19T22:48:59.678Z,5.87
2023-03-19T22:51:27.862Z,6.10
2023-03-19T22:53:54.656Z,5.80
2023-03-19T22:56:21.845Z,5.93
2023-03-19T22:58:48.664Z,5.23
2023-03-19T23:01:21.429Z,4.90
2023-03-19T23:03:49.312Z,5.10
2023-03-19T23:06:29.755Z,4.80
2023-03-19T23:08:57.763Z,5.10
2023-03-19T23:11:24.363Z,4.87
2023-03-19T23:13:50.996Z,5.10
2023-03-19T23:16:21.528Z,5.07
2023-03-19T23:18:49.302Z,5.03
2023-03-19T23:21:17.945Z,6.07
2023-03-19T23:23:44.888Z,5.50
2023-03-19T23:26:34.275Z,5.50
2023-03-19T23:29:04.786Z,5.60
2023-03-19T23:31:31.945Z,5.23
2023-03-19T23:33:58.350Z,5.47
2023-03-19T23:36:25.235Z,5.00
2023-03-19T23:38:51.949Z,5.00
2023-03-19T23:41:26.496Z,4.70
2023-03-19T23:43:53.156Z,5.07
2023-03-19T23:46:21.020Z,4.50
2023-03-19T23:48:47.613Z,4.77
2023-03-19T23:51:15.769Z,4.83
2023-03-19T23:53:42.545Z,5.40
2023-03-19T23:56:19.429Z,4.80
2023-03-19T23:58:47.743Z,4.83
